Terminal Aerodrome Forecast
Issued by NWS Twin Cities, MN

Home | Current Version | Previous Version | Graphics & Text | Print | Product List | Glossary On
Versions: 1 2 3 4 5 6 7 8 9 10 11 12 13 14 15 16 17 18 19
361
FTUS43 KMPX 291737
TAFSTC
TAF
KSTC 291737Z 2918/3018 06006KT P6SM BKN040
     FM300100 07003KT P6SM SKC
     FM300600 VRB02KT 4SM BR SKC
     FM301400 07004KT P6SM SKC=

USA.gov is the U.S. government's official web portal to all federal, state and local government web resources and services.